createdAt,value
2022-09-23T05:01:54.598Z,1.33
2022-09-23T05:07:02.863Z,0.95
2022-09-23T05:12:07.413Z,1.30
2022-09-23T05:17:12.955Z,1.40
2022-09-23T05:22:16.537Z,2.03
2022-09-23T05:27:20.614Z,1.60
2022-09-23T05:32:26.357Z,1.90
2022-09-23T05:37:29.963Z,1.92
2022-09-23T05:42:34.226Z,1.70
2022-09-23T05:47:39.165Z,1.80
2022-09-23T05:52:42.675Z,1.92
2022-09-23T05:57:46.500Z,2.60
2022-09-23T06:02:51.502Z,2.72
2022-09-23T06:07:55.482Z,2.10
2022-09-23T06:12:58.980Z,2.13
2022-09-23T06:18:04.559Z,2.08
2022-09-23T06:23:10.677Z,2.17
2022-09-23T06:28:14.579Z,2.70
2022-09-23T06:33:29.973Z,2.03
2022-09-23T06:38:36.281Z,1.62
2022-09-23T06:43:39.814Z,2.60
2022-09-23T06:48:46.258Z,3.28
2022-09-23T06:53:50.427Z,2.75
2022-09-23T06:58:54.762Z,2.22
2022-09-23T07:04:00.721Z,1.77
2022-09-23T07:09:04.596Z,2.70
2022-09-23T07:14:08.209Z,2.63
2022-09-23T07:19:13.574Z,2.03
2022-09-23T07:24:18.078Z,2.10
2022-09-23T07:29:21.771Z,2.33
2022-09-23T07:34:26.841Z,1.70
2022-09-23T07:39:30.481Z,2.12
2022-09-23T07:44:34.305Z,2.47
2022-09-23T07:49:39.519Z,2.47
2022-09-23T07:54:43.130Z,2.40
2022-09-23T07:59:46.667Z,2.90
2022-09-23T08:04:53.322Z,2.50
2022-09-23T08:09:56.863Z,2.20
2022-09-23T08:15:00.642Z,2.35
2022-09-23T08:20:06.984Z,2.05
2022-09-23T08:25:10.761Z,2.87
2022-09-23T08:30:14.767Z,3.53
2022-09-23T08:35:20.515Z,3.35
2022-09-23T08:40:25.338Z,2.97
2022-09-23T08:45:30.160Z,2.78
2022-09-23T08:50:42.357Z,3.03
2022-09-23T08:55:49.666Z,3.70
2022-09-23T09:01:05.864Z,3.72
2022-09-23T09:06:17.572Z,3.35
2022-09-23T09:11:23.954Z,3.75
2022-09-23T09:16:59.548Z,3.60
2022-09-23T09:22:13.683Z,3.20
2022-09-23T09:27:17.816Z,3.12
2022-09-23T09:32:33.859Z,2.45
2022-09-23T09:37:46.822Z,3.30
2022-09-23T09:42:52.023Z,2.92
2022-09-23T09:48:03.424Z,2.65
2022-09-23T09:53:22.407Z,3.22
2022-09-23T09:58:30.054Z,2.35
2022-09-23T10:03:38.743Z,3.58
2022-09-23T10:08:51.021Z,3.65
2022-09-23T10:14:13.546Z,3.22
2022-09-23T10:19:26.544Z,3.47
2022-09-23T10:24:36.338Z,2.83
2022-09-23T10:29:41.444Z,3.33
2022-09-23T10:34:47.933Z,3.37
2022-09-23T10:40:10.511Z,3.15
2022-09-23T10:45:41.197Z,3.30
2022-09-23T10:50:50.466Z,3.03
2022-09-23T10:56:13.002Z,4.32
2022-09-23T11:01:31.077Z,2.85
2022-09-23T11:06:48.619Z,2.17
2022-09-23T11:12:08.417Z,2.97
2022-09-23T11:17:33.111Z,2.90
2022-09-23T11:22:53.329Z,2.80
2022-09-23T11:28:17.486Z,2.87
2022-09-23T11:33:38.528Z,2.87
2022-09-23T11:38:46.150Z,2.83
2022-09-23T11:43:57.281Z,2.37
2022-09-23T11:49:09.067Z,2.45
2022-09-23T11:54:20.906Z,2.87
2022-09-23T11:59:40.218Z,2.67
2022-09-23T12:04:55.622Z,2.10
2022-09-23T12:10:03.768Z,2.70
2022-09-23T12:15:18.682Z,2.60
2022-09-23T12:20:38.364Z,1.67
2022-09-23T12:25:49.924Z,2.35
2022-09-23T12:30:58.559Z,1.95
2022-09-23T12:36:05.741Z,1.92
2022-09-23T12:41:25.480Z,2.30
2022-09-23T12:46:30.569Z,2.00
2022-09-23T12:51:35.579Z,2.28
2022-09-23T12:56:59.506Z,1.90
2022-09-23T13:02:26.499Z,1.47
2022-09-23T13:07:34.044Z,1.60
2022-09-23T13:12:41.133Z,1.75
2022-09-23T13:17:46.124Z,1.50
2022-09-23T13:23:07.047Z,2.45
2022-09-23T13:28:22.448Z,2.20
2022-09-23T13:33:34.283Z,2.12
2022-09-23T13:38:37.866Z,2.78
2022-09-23T13:43:43.694Z,1.93
2022-09-23T13:48:52.269Z,2.15
2022-09-23T13:53:57.731Z,1.98
2022-09-23T13:59:23.674Z,1.65
2022-09-23T14:04:28.840Z,2.53
2022-09-23T14:09:35.573Z,0.98
2022-09-23T14:14:41.146Z,0.80
2022-09-23T14:19:46.403Z,0.82
2022-09-23T14:24:50.310Z,1.65
2022-09-23T14:29:54.395Z,2.00
2022-09-23T14:35:18.714Z,2.10
2022-09-23T14:40:26.003Z,1.67
2022-09-23T14:45:35.138Z,1.25
2022-09-23T14:50:48.558Z,0.88
2022-09-23T14:55:57.272Z,1.30
2022-09-23T15:01:02.912Z,1.00
2022-09-23T15:06:10.052Z,1.40
2022-09-23T15:11:13.849Z,1.52
2022-09-23T15:16:24.499Z,1.12
2022-09-23T15:21:41.043Z,1.58
2022-09-23T15:26:49.490Z,1.70
2022-09-23T15:31:53.163Z,1.52
2022-09-23T15:36:58.224Z,1.83
2022-09-23T15:42:02.092Z,1.70
2022-09-23T15:47:06.485Z,1.25
2022-09-23T15:52:12.444Z,1.62
2022-09-23T15:57:15.962Z,0.90
2022-09-23T16:02:24.809Z,0.85
2022-09-23T16:07:29.796Z,0.68
2022-09-23T16:12:33.538Z,1.15
2022-09-23T16:17:37.840Z,1.23
2022-09-23T16:22:42.824Z,1.15
2022-09-23T16:27:46.488Z,1.87
2022-09-23T16:32:51.656Z,1.50
2022-09-23T16:37:57.195Z,1.55
2022-09-23T16:43:02.236Z,0.82
2022-09-23T16:48:06.864Z,1.10
2022-09-23T17:03:36.162Z,1.75
2022-09-23T17:08:41.823Z,2.10
2022-09-23T17:13:46.193Z,1.30
2022-09-23T17:18:49.830Z,1.17
2022-09-23T17:23:55.546Z,1.37
2022-09-23T17:29:01.524Z,1.50
2022-09-23T17:34:05.246Z,1.08
2022-09-23T17:39:10.440Z,0.90
2022-09-23T17:44:15.602Z,1.08
2022-09-23T17:49:19.201Z,1.95
2022-09-23T17:54:24.100Z,1.30
2022-09-23T17:59:28.312Z,2.03
2022-09-23T18:04:32.150Z,1.20
2022-09-23T18:09:37.204Z,1.52
2022-09-23T18:14:40.946Z,1.87
2022-09-23T18:19:49.073Z,1.50
2022-09-23T18:24:54.203Z,3.00
2022-09-23T18:29:57.742Z,2.67
2022-09-23T18:35:01.296Z,2.35
2022-09-23T18:40:12.531Z,1.73
2022-09-23T18:45:18.018Z,1.75
2022-09-23T18:50:38.898Z,1.55
2022-09-23T18:55:43.734Z,1.12
2022-09-23T19:00:50.241Z,2.25
2022-09-23T19:05:53.890Z,1.52
2022-09-23T19:10:59.657Z,1.35
2022-09-23T19:16:03.851Z,1.35
2022-09-23T19:21:09.092Z,1.42
2022-09-23T19:26:16.357Z,1.10
2022-09-23T19:31:22.973Z,1.25
2022-09-23T19:36:28.449Z,1.55
2022-09-23T19:41:35.354Z,1.85
2022-09-23T19:46:40.926Z,1.40
2022-09-23T19:51:46.466Z,1.65
2022-09-23T19:56:51.487Z,0.82
2022-09-23T20:01:55.608Z,1.65
2022-09-23T20:06:59.408Z,1.95
2022-09-23T20:12:04.892Z,1.90
2022-09-23T20:17:08.919Z,1.85
2022-09-23T20:22:33.000Z,1.67
2022-09-23T20:27:38.394Z,2.53
2022-09-23T20:32:44.756Z,1.52
2022-09-23T20:37:48.529Z,2.03
2022-09-23T20:42:53.778Z,1.70
2022-09-23T20:48:00.433Z,1.52
2022-09-23T20:53:04.052Z,1.73
2022-09-23T20:58:09.819Z,1.97
2022-09-23T21:03:13.651Z,1.77
2022-09-23T21:08:17.373Z,2.03
2022-09-23T21:13:22.268Z,1.83
2022-09-23T21:18:25.814Z,1.67
2022-09-23T21:23:31.109Z,2.60
2022-09-23T21:28:37.153Z,2.35
2022-09-23T21:33:40.725Z,2.33
2022-09-23T21:38:45.018Z,2.37
2022-09-23T21:43:50.394Z,1.73
2022-09-23T21:48:55.301Z,1.67
2022-09-23T21:54:00.546Z,2.00
2022-09-23T21:59:07.689Z,2.35
2022-09-23T22:04:16.161Z,1.40
2022-09-23T22:09:22.257Z,2.45
2022-09-23T22:14:27.813Z,2.22
2022-09-23T22:19:35.147Z,2.40
2022-09-23T22:24:39.199Z,1.75
